Time;durP1;ratioP1;P1;durP2;ratioP2;P2;SDS_P1;SDS_P2;PMS_P1;PMS_P2;Temp;Humidity;BMP_temperature;BMP_pressure;BME280_temperature;BME280_humidity;BME280_pressure;Samples;Min_cycle;Max_cycle;Signal;HPM_P1;HPM_P2
2022/07/05 00:00:00;;;;;;;5.22;1.85;;;;;;;20.36;100.00;99541.10;1729009;81;21052;-56
2022/07/05 00:02:26;;;;;;;3.02;1.35;;;;;;;20.29;100.00;99545.38;1733557;80;21322;-54
2022/07/05 00:04:53;;;;;;;4.87;1.30;;;;;;;20.22;100.00;99542.84;1730922;81;21058;-54
2022/07/05 00:07:19;;;;;;;4.10;1.35;;;;;;;20.14;100.00;99539.95;1731601;80;21179;-57
2022/07/05 00:09:53;;;;;;;3.17;1.00;;;;;;;20.07;100.00;99544.25;1730289;81;21086;-53
2022/07/05 00:12:22;;;;;;;2.45;1.27;;;;;;;20.00;100.00;99547.14;1731539;81;21508;-53
2022/07/05 00:14:48;;;;;;;4.72;1.02;;;;;;;19.91;100.00;99543.87;1732465;81;21867;-53
2022/07/05 00:17:15;;;;;;;1.30;0.95;;;;;;;19.81;100.00;99546.59;1730065;80;21153;-54
2022/07/05 00:19:41;;;;;;;2.27;1.30;;;;;;;19.73;100.00;99549.15;1730262;81;21124;-52
2022/07/05 00:22:08;;;;;;;1.85;1.35;;;;;;;19.64;100.00;99549.47;1731457;81;21514;-53
2022/07/05 00:24:36;;;;;;;7.12;2.42;;;;;;;19.57;100.00;99546.89;1727949;80;21050;-55
2022/07/05 00:27:04;;;;;;;1.90;1.02;;;;;;;19.56;100.00;99551.14;1732004;81;21153;-56
2022/07/05 00:29:31;;;;;;;3.00;1.35;;;;;;;19.56;100.00;99558.80;1731499;81;21560;-53
2022/07/05 00:31:57;;;;;;;3.05;0.95;;;;;;;19.56;100.00;99547.05;1730207;81;21128;-55
2022/07/05 00:34:24;;;;;;;3.58;1.15;;;;;;;19.56;100.00;99551.14;1729809;81;21074;-52
2022/07/05 00:36:51;;;;;;;1.80;1.00;;;;;;;19.56;100.00;99554.71;1732165;81;21066;-53
2022/07/05 00:39:17;;;;;;;2.70;1.00;;;;;;;19.59;100.00;99553.09;1690976;82;21301;-54
2022/07/05 00:41:43;;;;;;;1.50;0.98;;;;;;;19.62;100.00;99560.16;1731578;80;21112;-54
2022/07/05 00:44:11;;;;;;;1.20;1.10;;;;;;;19.64;100.00;99552.20;1732045;81;21579;-51
2022/07/05 00:46:38;;;;;;;1.62;1.17;;;;;;;19.65;100.00;99555.77;1732537;80;21105;-53
2022/07/05 00:49:05;;;;;;;3.10;0.98;;;;;;;19.64;100.00;99551.33;1729759;81;21320;-52
2022/07/05 00:51:35;;;;;;;1.10;0.93;;;;;;;19.60;100.00;99558.91;1727406;80;21101;-53
2022/07/05 00:54:01;;;;;;;1.40;1.00;;;;;;;19.57;100.00;99560.54;1730061;81;21762;-53
2022/07/05 00:56:28;;;;;;;1.30;1.10;;;;;;;19.55;100.00;99558.97;1731157;81;21144;-54
2022/07/05 00:58:55;;;;;;;1.27;0.80;;;;;;;19.52;100.00;99564.69;1732556;80;21106;-52
2022/07/05 01:01:21;;;;;;;2.12;1.20;;;;;;;19.52;100.00;99557.86;1734118;81;21109;-56
2022/07/05 01:03:48;;;;;;;4.45;1.02;;;;;;;19.52;100.00;99561.95;1733983;80;21378;-57
2022/07/05 01:06:15;;;;;;;3.15;1.00;;;;;;;19.51;100.00;99563.82;1733618;81;21216;-53
2022/07/05 01:08:42;;;;;;;1.05;0.95;;;;;;;19.49;100.00;99554.02;1697610;82;20942;-53
2022/07/05 01:11:09;;;;;;;2.05;1.10;;;;;;;19.46;100.00;99561.97;1732709;81;21371;-54
2022/07/05 01:13:36;;;;;;;1.57;0.93;;;;;;;19.44;100.00;99558.51;1733799;81;20903;-56
2022/07/05 01:16:05;;;;;;;1.77;1.22;;;;;;;19.41;100.00;99558.77;1728430;81;21243;-53
2022/07/05 01:18:32;;;;;;;1.15;1.02;;;;;;;19.37;100.00;99558.69;1735113;81;20970;-54
2022/07/05 01:20:59;;;;;;;3.25;0.90;;;;;;;19.33;100.00;99555.84;1711016;81;20931;-55
2022/07/05 01:23:30;;;;;;;1.10;0.95;;;;;;;19.27;100.00;99557.25;1733062;81;21974;-54
2022/07/05 01:25:57;;;;;;;5.10;1.20;;;;;;;19.23;100.00;99552.17;1734086;81;20941;-54
2022/07/05 01:28:24;;;;;;;2.00;1.22;;;;;;;19.20;100.00;99547.88;1734423;81;21702;-53
2022/07/05 01:30:50;;;;;;;4.33;0.85;;;;;;;19.18;100.00;99553.09;1734877;81;20962;-52
2022/07/05 01:33:17;;;;;;;1.10;1.00;;;;;;;19.19;100.00;99550.23;1734832;81;21603;-56
2022/07/05 01:35:45;;;;;;;3.40;1.05;;;;;;;19.22;100.00;99549.11;1733007;81;20888;-56
2022/07/05 01:38:12;;;;;;;3.00;1.10;;;;;;;19.26;100.00;99551.42;1732642;81;20951;-56
2022/07/05 01:40:39;;;;;;;3.35;1.27;;;;;;;19.30;100.00;99547.08;1732612;80;21760;-56
2022/07/05 01:43:06;;;;;;;1.37;1.27;;;;;;;19.31;100.00;99552.91;1735585;81;20915;-57
2022/07/05 01:45:45;;;;;;;1.45;1.20;;;;;;;19.31;100.00;99553.73;1732978;81;21073;-56
2022/07/05 01:48:11;;;;;;;2.17;0.90;;;;;;;19.30;100.00;99553.41;1730581;81;21129;-55
2022/07/05 01:50:48;;;;;;;1.65;1.05;;;;;;;19.27;100.00;99553.66;1735819;80;21077;-55
2022/07/05 01:53:20;;;;;;;1.62;1.10;;;;;;;19.24;100.00;99552.05;1740043;80;21164;-55
2022/07/05 01:55:48;;;;;;;1.92;1.10;;;;;;;19.20;100.00;99553.34;1736255;80;21417;-55
2022/07/05 01:58:16;;;;;;;1.70;1.10;;;;;;;19.16;100.00;99562.77;1739913;80;21070;-55
2022/07/05 02:00:46;;;;;;;2.55;1.32;;;;;;;19.11;100.00;99554.62;1737805;80;21086;-55
2022/07/05 02:03:13;;;;;;;1.15;0.90;;;;;;;19.05;100.00;99564.71;1736732;80;21033;-55
2022/07/05 02:05:42;;;;;;;1.10;1.00;;;;;;;18.99;100.00;99567.95;1736662;80;21048;-55
2022/07/05 02:08:11;;;;;;;1.62;1.12;;;;;;;18.96;100.00;99562.28;1740461;80;21497;-56
2022/07/05 02:10:39;;;;;;;2.85;1.15;;;;;;;18.93;100.00;99567.11;1736533;80;21386;-55
2022/07/05 02:13:06;;;;;;;1.92;1.50;;;;;;;18.87;100.00;99563.06;1740859;80;21104;-55
2022/07/05 02:15:37;;;;;;;2.33;1.12;;;;;;;18.80;100.00;99559.09;1740089;80;21034;-55
2022/07/05 02:18:04;;;;;;;4.30;1.20;;;;;;;18.75;100.00;99564.95;1739601;80;21694;-55
2022/07/05 02:20:31;;;;;;;2.65;1.10;;;;;;;18.75;100.00;99568.18;1734149;80;21416;-55
2022/07/05 02:22:58;;;;;;;1.45;0.90;;;;;;;18.75;100.00;99559.50;1742923;80;21112;-55
2022/07/05 02:25:25;;;;;;;1.00;0.90;;;;;;;18.78;100.00;99558.39;1739584;80;21048;-55
2022/07/05 02:27:52;;;;;;;1.10;1.00;;;;;;;18.80;100.00;99553.15;1711408;80;21061;-55
2022/07/05 02:30:19;;;;;;;1.12;1.02;;;;;;;18.81;100.00;99566.29;1712671;81;21923;-55
2022/07/05 02:32:46;;;;;;;1.57;0.93;;;;;;;18.83;100.00;99562.44;1740997;80;21516;-55
2022/07/05 02:35:14;;;;;;;1.15;1.00;;;;;;;18.88;100.00;99560.70;1738371;80;21089;-55
2022/07/05 02:37:41;;;;;;;1.57;1.00;;;;;;;18.92;100.00;99558.56;1739798;80;21564;-55
2022/07/05 02:40:11;;;;;;;2.45;1.42;;;;;;;18.94;100.00;99558.80;1740259;80;21061;-55
2022/07/05 02:42:40;;;;;;;1.75;1.10;;;;;;;18.95;100.00;99558.31;1739690;81;21112;-55
2022/07/05 02:45:09;;;;;;;2.47;1.10;;;;;;;18.90;100.00;99559.55;1741383;80;21071;-55
2022/07/05 02:47:35;;;;;;;2.08;1.00;;;;;;;18.84;100.00;99564.18;1741868;80;21034;-55
2022/07/05 02:50:10;;;;;;;1.30;0.90;;;;;;;18.80;100.00;99563.19;1739310;80;22161;-55
2022/07/05 02:52:38;;;;;;;1.17;1.07;;;;;;;18.80;100.00;99562.69;1738768;80;21661;-55
2022/07/05 02:55:06;;;;;;;1.05;0.90;;;;;;;18.84;100.00;99566.04;1738433;80;22052;-55
2022/07/05 02:57:32;;;;;;;2.52;0.90;;;;;;;18.87;100.00;99567.16;1736525;80;21671;-55
2022/07/05 03:00:01;;;;;;;2.75;1.00;;;;;;;18.94;100.00;99568.84;1710466;81;21081;-55
2022/07/05 03:02:30;;;;;;;1.05;0.95;;;;;;;18.99;100.00;99581.08;1736186;80;21110;-55
2022/07/05 03:04:57;;;;;;;1.87;1.32;;;;;;;19.04;100.00;99577.48;1718085;81;21188;-55
2022/07/05 03:07:24;;;;;;;1.70;1.40;;;;;;;19.11;100.00;99572.36;1735430;80;21439;-55
2022/07/05 03:09:51;;;;;;;1.75;1.15;;;;;;;19.17;100.00;99571.33;1700551;82;21094;-55
2022/07/05 03:12:17;;;;;;;1.55;1.10;;;;;;;19.20;100.00;99575.66;1738692;80;21105;-55
2022/07/05 03:14:44;;;;;;;1.95;1.00;;;;;;;19.18;100.00;99578.52;1741620;80;21602;-55
2022/07/05 03:17:11;;;;;;;1.57;1.10;;;;;;;19.21;100.00;99573.30;1737301;80;21096;-55
2022/07/05 03:19:38;;;;;;;0.95;0.90;;;;;;;19.25;100.00;99578.84;1738976;80;21231;-55
2022/07/05 03:22:05;;;;;;;1.05;0.95;;;;;;;19.30;100.00;99577.97;1737610;80;21454;-55
2022/07/05 03:24:32;;;;;;;0.93;0.90;;;;;;;19.35;100.00;99578.91;1741686;80;21062;-55
2022/07/05 03:29:32;;;;;;;2.52;0.95;;;;;;;19.49;100.00;99573.13;1864047;75;28036;-55
2022/07/05 03:32:00;;;;;;;2.90;1.20;;;;;;;19.50;100.00;99573.50;1835914;77;21000;-55
2022/07/05 03:34:27;;;;;;;3.22;1.52;;;;;;;19.55;100.00;99576.22;1836993;77;23366;-55
2022/07/05 03:36:54;;;;;;;1.20;1.00;;;;;;;19.60;100.00;99580.76;1836638;77;21434;-55
2022/07/05 03:39:21;;;;;;;2.65;1.00;;;;;;;19.61;100.00;99580.26;1834872;76;21447;-55
2022/07/05 03:41:48;;;;;;;2.20;1.00;;;;;;;19.57;100.00;99575.55;1834510;77;21479;-55
2022/07/05 03:44:16;;;;;;;2.08;0.90;;;;;;;19.58;100.00;99581.38;1833805;77;21040;-55
2022/07/05 03:46:42;;;;;;;1.00;0.90;;;;;;;19.61;100.00;99585.22;1835502;76;21483;-55
2022/07/05 03:49:10;;;;;;;2.77;1.00;;;;;;;19.61;100.00;99581.13;1839496;75;21611;-55
2022/07/05 03:51:36;;;;;;;0.80;0.80;;;;;;;19.62;100.00;99584.22;1835991;77;20985;-55
2022/07/05 03:54:05;;;;;;;5.05;1.02;;;;;;;19.66;100.00;99576.61;1836667;77;21021;-55
2022/07/05 03:56:35;;;;;;;2.08;1.00;;;;;;;19.67;100.00;99581.57;1833878;77;21548;-55
2022/07/05 03:59:02;;;;;;;2.47;0.98;;;;;;;19.69;100.00;99582.31;1816372;77;21745;-55
2022/07/05 04:01:29;;;;;;;1.45;0.93;;;;;;;19.68;100.00;99584.67;1816291;77;21024;-55
2022/07/05 04:03:56;;;;;;;1.30;0.98;;;;;;;19.65;100.00;99585.30;1815287;77;21055;-55
2022/07/05 04:06:23;;;;;;;0.98;0.90;;;;;;;19.62;100.00;99586.95;1818416;77;21487;-55
2022/07/05 04:08:52;;;;;;;3.72;1.10;;;;;;;19.59;100.00;99581.75;1814494;77;21000;-55
2022/07/05 04:11:19;;;;;;;2.50;1.32;;;;;;;19.57;100.00;99581.52;1783191;78;21764;-55
2022/07/05 04:13:47;;;;;;;1.45;0.88;;;;;;;19.59;100.00;99586.34;1779652;79;20993;-55
2022/07/05 04:16:13;;;;;;;1.20;1.10;;;;;;;19.63;100.00;99580.50;1780350;78;20930;-55
2022/07/05 04:18:41;;;;;;;1.52;1.05;;;;;;;19.73;100.00;99581.05;1763148;78;20897;-55
2022/07/05 04:21:07;;;;;;;3.42;1.90;;;;;;;19.83;100.00;99572.38;1766855;78;20914;-55
2022/07/05 04:23:34;;;;;;;2.80;1.72;;;;;;;19.94;100.00;99573.16;1761352;78;21105;-55
2022/07/05 04:26:01;;;;;;;2.22;1.45;;;;;;;20.08;100.00;99572.41;1764676;78;21325;-55
2022/07/05 04:28:32;;;;;;;1.95;1.60;;;;;;;20.20;100.00;99572.17;1762074;78;21428;-55
2022/07/05 04:31:00;;;;;;;2.22;1.50;;;;;;;20.34;100.00;99566.84;1761475;78;20938;-55
2022/07/05 04:33:27;;;;;;;1.60;1.50;;;;;;;20.47;100.00;99563.86;1783380;78;21393;-55
2022/07/05 04:35:56;;;;;;;3.05;1.72;;;;;;;20.60;100.00;99563.08;1784880;79;21613;-54
2022/07/05 04:38:22;;;;;;;2.80;1.20;;;;;;;20.72;100.00;99560.08;1745879;80;21320;-56
2022/07/05 04:40:49;;;;;;;1.35;1.27;;;;;;;20.84;100.00;99558.05;1744408;80;21133;-58
2022/07/05 04:43:16;;;;;;;1.98;1.57;;;;;;;20.97;100.00;99561.88;1778348;78;21640;-57
2022/07/05 04:45:44;;;;;;;2.92;1.50;;;;;;;21.08;100.00;99564.48;1772742;78;21044;-57
2022/07/05 04:48:11;;;;;;;2.50;1.80;;;;;;;21.20;100.00;99555.12;1746957;80;21193;-57
2022/07/05 04:50:38;;;;;;;2.67;1.62;;;;;;;21.33;100.00;99558.44;1782003;78;21306;-58
2022/07/05 04:53:05;;;;;;;1.60;1.50;;;;;;;21.44;100.00;99561.48;1746034;80;21095;-57
2022/07/05 04:55:34;;;;;;;1.60;1.50;;;;;;;21.56;100.00;99569.91;1761578;79;21500;-56
2022/07/05 04:58:00;;;;;;;1.75;1.62;;;;;;;21.66;100.00;99563.03;1748091;80;20969;-57
2022/07/05 05:00:27;;;;;;;2.45;1.42;;;;;;;21.76;100.00;99557.02;1776954;78;21132;-56
2022/07/05 05:05:29;;;;;;;1.60;1.47;;;;;;;22.01;100.00;99561.86;1781451;78;28107;-56
2022/07/05 05:07:56;;;;;;;2.50;2.00;;;;;;;22.08;100.00;99567.59;1757392;80;21960;-55
2022/07/05 05:10:24;;;;;;;3.80;2.45;;;;;;;22.21;100.00;99559.86;1759549;80;21518;-57
2022/07/05 05:12:51;;;;;;;3.10;1.87;;;;;;;22.34;100.00;99559.02;1760046;79;21012;-57
2022/07/05 05:15:19;;;;;;;1.95;1.85;;;;;;;22.46;100.00;99566.50;1771105;79;21096;-54
2022/07/05 05:17:45;;;;;;;2.83;1.70;;;;;;;22.59;100.00;99567.00;1763823;79;20925;-57
2022/07/05 05:20:16;;;;;;;1.92;1.50;;;;;;;22.71;100.00;99563.55;1766778;79;21046;-55
2022/07/05 05:22:42;;;;;;;2.80;1.80;;;;;;;22.84;100.00;99566.78;1758878;79;22139;-55
2022/07/05 05:25:09;;;;;;;3.58;1.22;;;;;;;22.97;100.00;99574.97;1751933;79;20973;-57
2022/07/05 05:27:44;;;;;;;2.62;1.47;;;;;;;23.09;100.00;99570.62;1761297;79;20986;-57
2022/07/05 05:30:12;;;;;;;4.08;1.30;;;;;;;23.20;100.00;99576.74;1766565;79;22932;-57
2022/07/05 05:32:39;;;;;;;3.17;1.70;;;;;;;23.32;100.00;99578.20;1762949;79;21495;-56
2022/07/05 05:35:07;;;;;;;3.83;1.62;;;;;;;23.45;100.00;99570.07;1769073;79;21070;-57
2022/07/05 05:37:54;;;;;;;2.33;1.80;;;;;;;23.58;100.00;99578.77;1766152;79;21131;-56
2022/07/05 05:40:22;;;;;;;2.42;1.87;;;;;;;23.70;100.00;99581.11;1767601;79;21371;-57
2022/07/05 05:42:48;;;;;;;3.25;2.33;;;;;;;23.86;100.00;99582.23;1753432;79;21072;-56
2022/07/05 05:45:15;;;;;;;1.72;1.62;;;;;;;23.96;100.00;99578.86;1761619;80;21014;-56
2022/07/05 05:47:51;;;;;;;1.75;1.45;;;;;;;24.05;100.00;99575.98;1769199;80;21438;-57
2022/07/05 05:50:21;;;;;;;4.95;1.62;;;;;;;24.14;100.00;99577.76;1766982;79;21552;-55
2022/07/05 05:52:47;;;;;;;4.22;1.40;;;;;;;24.24;100.00;99579.55;1759835;80;21489;-55
2022/07/05 05:55:13;;;;;;;4.53;1.35;;;;;;;24.31;100.00;99577.34;1771426;79;21085;-56
2022/07/05 05:57:41;;;;;;;4.60;1.57;;;;;;;24.39;100.00;99576.52;1767717;79;21085;-56
2022/07/05 06:00:09;;;;;;;2.83;1.37;;;;;;;24.45;100.00;99568.96;1765587;80;20989;-57
2022/07/05 06:02:38;;;;;;;3.00;1.65;;;;;;;24.54;100.00;99571.23;1762782;79;21109;-57
2022/07/05 06:05:06;;;;;;;1.55;1.42;;;;;;;24.61;100.00;99573.65;1765041;79;22279;-56
2022/07/05 06:07:53;;;;;;;4.00;1.40;;;;;;;24.68;100.00;99577.45;1767340;79;21131;-57
2022/07/05 06:10:25;;;;;;;1.77;1.17;;;;;;;24.75;100.00;99578.52;1760634;78;21087;-58
2022/07/05 06:12:53;;;;;;;2.12;1.27;;;;;;;24.82;100.00;99584.56;1764329;80;21134;-57
2022/07/05 06:15:20;;;;;;;2.47;1.17;;;;;;;24.88;100.00;99576.13;1764944;79;21081;-58
2022/07/05 06:17:48;;;;;;;2.20;1.65;;;;;;;24.95;100.00;99575.83;1761874;79;21077;-58
2022/07/05 06:20:17;;;;;;;3.98;1.70;;;;;;;25.02;100.00;99574.11;1772200;78;21514;-57
2022/07/05 06:22:44;;;;;;;2.30;1.10;;;;;;;25.09;100.00;99569.67;1770014;78;21570;-57
2022/07/05 06:25:10;;;;;;;1.67;1.45;;;;;;;25.17;100.00;99574.31;1766555;78;22398;-57
2022/07/05 06:27:48;;;;;;;1.72;1.57;;;;;;;25.23;100.00;99573.11;1765874;80;21033;-55
2022/07/05 06:30:17;;;;;;;2.77;1.20;;;;;;;25.31;100.00;99568.63;1768879;78;21074;-55
2022/07/05 06:32:44;;;;;;;2.10;1.47;;;;;;;25.39;100.00;99583.26;1768168;79;20963;-55
2022/07/05 06:35:11;;;;;;;1.10;1.00;;;;;;;25.45;100.00;99577.56;1768535;79;21472;-55
2022/07/05 06:37:48;;;;;;;1.10;1.00;;;;;;;25.50;100.00;99565.01;1763765;80;21332;-55
2022/07/05 06:40:26;;;;;;;1.75;1.20;;;;;;;25.55;100.00;99563.95;1773847;79;21223;-55
2022/07/05 06:42:55;;;;;;;1.60;1.10;;;;;;;25.60;100.00;99565.69;1766233;80;21068;-55
2022/07/05 06:45:24;;;;;;;2.02;1.30;;;;;;;25.67;100.00;99567.77;1768295;78;21630;-55
2022/07/05 06:48:00;;;;;;;2.08;1.17;;;;;;;25.74;100.00;99575.68;1766408;80;21578;-55
2022/07/05 06:50:27;;;;;;;3.25;1.72;;;;;;;25.80;100.00;99570.32;1768414;79;21650;-55
2022/07/05 06:52:54;;;;;;;2.75;1.30;;;;;;;25.86;100.00;99567.40;1777447;79;20918;-56
2022/07/05 06:55:21;;;;;;;1.52;1.20;;;;;;;25.91;100.00;99571.86;1767167;79;20929;-55
2022/07/05 06:57:47;;;;;;;2.08;1.00;;;;;;;25.96;100.00;99569.41;1773810;78;20898;-56
2022/07/05 07:00:14;;;;;;;3.00;1.37;;;;;;;26.01;100.00;99572.52;1768293;78;22237;-54
2022/07/05 07:02:41;;;;;;;1.90;1.07;;;;;;;26.05;100.00;99566.98;1716408;81;23160;-55
2022/07/05 07:05:08;;;;;;;5.65;1.20;;;;;;;26.10;100.00;99574.22;1696259;83;20995;-55
2022/07/05 07:10:19;;;;;;;1.20;1.10;;;;;;;26.21;100.00;99572.44;1704505;82;21591;-55
2022/07/05 07:12:46;;;;;;;1.95;1.50;;;;;;;26.30;100.00;99570.02;1713113;82;21347;-55
2022/07/05 07:15:13;;;;;;;33.02;4.20;;;;;;;26.38;100.00;99571.88;1711026;82;21867;-55
2022/07/05 07:17:41;;;;;;;6.08;1.45;;;;;;;26.46;100.00;99575.98;1703850;82;22300;-55
2022/07/05 07:20:09;;;;;;;1.40;1.30;;;;;;;26.53;100.00;99573.38;1708791;82;21148;-55
2022/07/05 07:22:35;;;;;;;2.65;1.20;;;;;;;26.61;100.00;99570.58;1712842;82;21005;-56
2022/07/05 07:25:05;;;;;;;2.37;1.35;;;;;;;26.70;100.00;99573.64;1716466;82;21073;-57
2022/07/05 07:27:31;;;;;;;1.85;1.40;;;;;;;26.77;100.00;99572.38;1709881;82;21148;-55
2022/07/05 07:29:58;;;;;;;3.92;1.27;;;;;;;26.83;100.00;99570.27;1713931;81;20915;-57
2022/07/05 07:32:24;;;;;;;1.32;1.00;;;;;;;26.91;100.00;99578.02;1708872;82;21108;-57
2022/07/05 07:34:51;;;;;;;3.05;0.90;;;;;;;27.01;100.00;99574.50;1709196;81;21393;-58
2022/07/05 07:37:18;;;;;;;2.10;0.98;;;;;;;27.13;100.00;99569.42;1711834;82;21056;-59
2022/07/05 07:39:45;;;;;;;3.87;0.95;;;;;;;27.23;100.00;99567.75;1710202;82;21142;-57
2022/07/05 07:42:11;;;;;;;1.45;0.90;;;;;;;27.30;100.00;99566.86;1708854;82;22016;-57
2022/07/05 07:44:38;;;;;;;3.87;0.90;;;;;;;27.37;100.00;99568.35;1712714;82;21131;-58
2022/07/05 07:47:05;;;;;;;2.17;0.90;;;;;;;27.45;100.00;99566.37;1709064;82;21631;-58
2022/07/05 07:49:31;;;;;;;1.40;0.98;;;;;;;27.55;100.00;99563.39;1715840;82;21180;-57
2022/07/05 07:51:58;;;;;;;1.55;0.80;;;;;;;27.64;100.00;99560.88;1733813;81;21104;-57
2022/07/05 07:54:24;;;;;;;1.22;0.90;;;;;;;27.72;100.00;99562.70;1726237;81;21144;-57
2022/07/05 07:56:51;;;;;;;20.62;1.87;;;;;;;27.80;100.00;99553.80;1712967;82;21065;-58
2022/07/05 07:59:17;;;;;;;1.30;0.80;;;;;;;27.85;100.00;99555.98;1714986;82;21551;-57
2022/07/05 08:01:44;;;;;;;1.65;0.80;;;;;;;27.90;100.00;99549.90;1708822;82;21474;-56
2022/07/05 08:04:13;;;;;;;0.80;0.80;;;;;;;27.99;100.00;99550.97;1711477;82;21073;-57
2022/07/05 08:06:41;;;;;;;1.45;0.80;;;;;;;28.09;100.00;99551.55;1716661;82;21034;-57
2022/07/05 08:09:07;;;;;;;2.47;0.80;;;;;;;28.18;100.00;99545.43;1707566;82;21136;-56
2022/07/05 08:11:33;;;;;;;1.98;0.90;;;;;;;28.24;100.00;99543.30;1710393;82;21119;-57
2022/07/05 08:14:00;;;;;;;1.30;0.78;;;;;;;28.31;100.00;99534.55;1709970;82;21140;-57
2022/07/05 08:16:26;;;;;;;4.08;0.80;;;;;;;28.39;100.00;99537.22;1707521;82;21982;-57
2022/07/05 08:21:38;;;;;;;4.28;1.00;;;;;;;28.47;100.00;99527.41;1699540;82;21068;-57
2022/07/05 08:24:10;;;;;;;0.80;0.60;;;;;;;28.51;100.00;99525.95;1699809;81;21154;-57
2022/07/05 08:26:36;;;;;;;0.70;0.70;;;;;;;28.57;100.00;99527.11;1700283;82;21623;-57
2022/07/05 08:29:05;;;;;;;1.12;0.60;;;;;;;28.65;100.00;99526.13;1703760;82;21337;-58
2022/07/05 08:31:35;;;;;;;4.65;0.70;;;;;;;28.73;100.00;99531.02;1710093;82;21111;-56
2022/07/05 08:34:01;;;;;;;0.90;0.70;;;;;;;28.81;100.00;99528.16;1699297;82;21109;-58
2022/07/05 08:36:28;;;;;;;0.70;0.60;;;;;;;28.90;100.00;99518.67;1707991;82;21080;-58
2022/07/05 08:38:54;;;;;;;0.80;0.80;;;;;;;28.98;100.00;99515.77;1706331;82;21494;-59
2022/07/05 08:41:21;;;;;;;3.42;0.98;;;;;;;29.08;100.00;99521.52;1702612;82;21602;-58
2022/07/05 08:43:49;;;;;;;0.80;0.80;;;;;;;29.16;100.00;99518.61;1710481;82;21103;-58
2022/07/05 08:46:16;;;;;;;1.07;0.70;;;;;;;29.21;100.00;99523.02;1707519;82;21543;-58
2022/07/05 08:48:44;;;;;;;1.12;0.68;;;;;;;29.24;100.00;99526.78;1712072;81;21096;-55
2022/07/05 08:51:21;;;;;;;1.52;1.25;;;;;;;29.26;100.00;99526.89;1702905;82;21120;-56
2022/07/05 08:53:48;;;;;;;4.45;0.80;;;;;;;29.32;100.00;99530.27;1703935;82;21243;-57
2022/07/05 08:56:15;;;;;;;2.83;0.80;;;;;;;29.38;100.00;99533.33;1709621;81;21609;-56
2022/07/05 08:58:42;;;;;;;3.20;0.80;;;;;;;29.44;100.00;99531.13;1703136;82;21441;-56
2022/07/05 09:01:09;;;;;;;1.25;0.72;;;;;;;29.44;100.00;99523.67;1703887;82;21069;-55
2022/07/05 09:03:48;;;;;;;2.12;0.70;;;;;;;29.44;100.00;99527.83;1703373;82;21635;-56
2022/07/05 09:06:21;;;;;;;0.70;0.70;;;;;;;29.44;100.00;99533.91;1703720;82;21125;-57
2022/07/05 09:08:48;;;;;;;2.00;0.90;;;;;;;29.45;100.00;99528.16;1702109;82;21982;-56
2022/07/05 09:11:16;;;;;;;2.35;0.70;;;;;;;29.52;100.00;99529.63;1712494;82;21049;-55
2022/07/05 09:13:46;;;;;;;1.42;0.70;;;;;;;29.58;100.00;99526.90;1701706;82;21202;-56
2022/07/05 09:16:12;;;;;;;0.88;0.75;;;;;;;29.69;100.00;99531.88;1707824;82;21560;-55
2022/07/05 09:18:50;;;;;;;1.02;0.70;;;;;;;29.81;100.00;99530.80;1704335;82;21065;-57
2022/07/05 09:21:24;;;;;;;2.40;0.90;;;;;;;29.90;100.00;99525.41;1712276;82;21081;-57
2022/07/05 09:24:00;;;;;;;1.05;0.80;;;;;;;30.01;100.00;99528.19;1711805;82;22244;-56
2022/07/05 09:26:45;;;;;;;2.05;0.80;;;;;;;30.13;100.00;99532.62;1706323;82;21160;-57
2022/07/05 09:29:15;;;;;;;2.55;0.70;;;;;;;30.20;100.00;99530.77;1705950;82;21083;-57
2022/07/05 09:31:44;;;;;;;3.45;0.80;;;;;;;30.22;100.00;99530.86;1699336;82;21413;-57
2022/07/05 09:34:15;;;;;;;1.85;0.68;;;;;;;30.25;100.00;99530.46;1708540;82;21096;-57
2022/07/05 09:37:02;;;;;;;1.45;0.80;;;;;;;30.32;100.00;99530.48;1707092;82;21855;-57
2022/07/05 09:39:35;;;;;;;4.72;0.70;;;;;;;30.40;100.00;99530.30;1714918;82;21235;-60
2022/07/05 09:42:18;;;;;;;0.80;0.80;;;;;;;30.51;100.00;99530.25;1719813;82;21069;-57
2022/07/05 09:44:56;;;;;;;13.90;1.30;;;;;;;30.59;100.00;99529.58;1700494;81;21167;-57
2022/07/05 09:47:29;;;;;;;3.75;0.80;;;;;;;30.69;100.00;99538.91;1696028;81;21103;-55
2022/07/05 09:50:05;;;;;;;5.85;0.80;;;;;;;30.73;100.00;99546.60;1739201;80;21513;-56
2022/07/05 09:52:36;;;;;;;1.98;0.70;;;;;;;30.71;100.00;99543.17;1715765;81;21539;-56
2022/07/05 09:55:16;;;;;;;0.80;0.80;;;;;;;30.67;100.00;99539.64;1739525;81;21079;-55
2022/07/05 09:57:43;;;;;;;1.22;0.75;;;;;;;30.65;100.00;99536.20;1730221;81;21131;-58
2022/07/05 10:00:15;;;;;;;1.27;0.80;;;;;;;30.67;100.00;99532.70;1732929;81;21099;-57
2022/07/05 10:02:50;;;;;;;1.87;0.75;;;;;;;30.69;100.00;99536.98;1738493;81;20975;-59
2022/07/05 10:05:24;;;;;;;0.90;0.68;;;;;;;30.74;100.00;99531.65;1737561;80;21125;-57
2022/07/05 10:07:53;;;;;;;0.90;0.70;;;;;;;30.79;100.00;99530.48;1725367;81;21424;-58
2022/07/05 10:10:26;;;;;;;0.70;0.70;;;;;;;30.82;100.00;99531.45;1723175;81;21890;-56
2022/07/05 10:12:57;;;;;;;2.33;0.67;;;;;;;30.86;100.00;99535.22;1699315;81;21471;-56
2022/07/05 10:15:27;;;;;;;4.22;0.70;;;;;;;30.90;100.00;99517.90;1715544;81;21772;-58
2022/07/05 10:18:03;;;;;;;1.05;0.70;;;;;;;30.98;100.00;99529.35;1721269;81;21571;-58
2022/07/05 10:20:43;;;;;;;2.12;1.02;;;;;;;31.04;100.00;99522.97;1708060;82;20945;-57
2022/07/05 10:23:15;;;;;;;2.40;0.80;;;;;;;31.08;100.00;99527.91;1716163;82;22005;-57
2022/07/05 10:25:47;;;;;;;2.15;0.80;;;;;;;31.14;100.00;99524.81;1709111;82;21132;-55
2022/07/05 10:28:13;;;;;;;1.95;0.80;;;;;;;31.19;100.00;99520.87;1723719;81;21080;-56
2022/07/05 10:30:40;;;;;;;2.10;0.90;;;;;;;31.23;100.00;99517.12;1699714;82;21001;-54
2022/07/05 10:33:07;;;;;;;1.70;0.90;;;;;;;31.26;100.00;99517.56;1707016;82;21514;-57
2022/07/05 10:35:34;;;;;;;3.77;1.00;;;;;;;31.29;100.00;99514.38;1718217;81;21392;-55
2022/07/05 10:38:01;;;;;;;0.90;0.80;;;;;;;31.34;100.00;99517.36;1708784;83;21032;-56
2022/07/05 10:40:29;;;;;;;1.05;0.80;;;;;;;31.37;100.00;99511.38;1717923;82;21005;-56
2022/07/05 10:42:58;;;;;;;4.05;0.90;;;;;;;31.35;100.00;99511.27;1703589;82;21388;-57
2022/07/05 10:45:35;;;;;;;1.15;0.75;;;;;;;31.36;100.00;99511.05;1706100;82;21117;-58
2022/07/05 10:48:22;;;;;;;0.70;0.70;;;;;;;31.29;100.00;99503.25;1680598;81;21141;-56
2022/07/05 10:51:05;;;;;;;2.30;0.80;;;;;;;31.19;100.00;99507.84;1676369;83;21076;-56
2022/07/05 10:53:41;;;;;;;0.80;0.80;;;;;;;31.19;100.00;99499.50;1650706;84;21155;-58
2022/07/05 10:56:11;;;;;;;4.37;0.80;;;;;;;31.21;100.00;99500.68;1665063;82;21586;-55
2022/07/05 10:58:46;;;;;;;0.93;0.70;;;;;;;31.20;100.00;99497.58;1677168;83;21087;-55
2022/07/05 11:01:25;;;;;;;0.90;0.80;;;;;;;31.17;100.00;99501.62;1664950;84;21866;-57
2022/07/05 11:04:07;;;;;;;4.25;0.90;;;;;;;31.13;100.00;99495.33;1645328;83;21437;-57
2022/07/05 11:06:42;;;;;;;3.85;0.70;;;;;;;31.12;100.00;99496.39;1653615;82;21011;-57
2022/07/05 11:09:15;;;;;;;0.70;0.70;;;;;;;31.09;100.00;99492.10;1676346;83;21099;-55
2022/07/05 11:11:48;;;;;;;1.57;0.60;;;;;;;31.09;100.00;99487.94;1655943;83;21672;-55
2022/07/05 11:14:26;;;;;;;0.75;0.70;;;;;;;31.12;100.00;99485.27;1651154;84;21154;-57
2022/07/05 11:17:15;;;;;;;1.22;0.80;;;;;;;31.16;100.00;99486.54;1652096;83;21068;-56
2022/07/05 11:20:01;;;;;;;1.27;1.02;;;;;;;31.19;100.00;99479.17;1661971;84;21038;-55
2022/07/05 11:22:28;;;;;;;1.32;0.78;;;;;;;31.27;100.00;99483.13;1642646;84;21142;-54
2022/07/05 11:24:56;;;;;;;3.08;0.80;;;;;;;31.35;100.00;99478.75;1676173;83;21091;-57
2022/07/05 11:27:23;;;;;;;2.87;0.88;;;;;;;31.43;100.00;99482.70;1638979;84;21658;-56
2022/07/05 11:29:53;;;;;;;0.80;0.80;;;;;;;31.49;100.00;99479.05;1678023;83;21630;-56
2022/07/05 11:32:30;;;;;;;1.67;1.15;;;;;;;31.54;100.00;99473.72;1671489;82;21404;-56
2022/07/05 11:35:18;;;;;;;3.33;1.35;;;;;;;31.59;100.00;99472.52;1674062;82;21523;-56
2022/07/05 11:38:07;;;;;;;1.00;0.90;;;;;;;31.65;100.00;99470.82;1676928;82;21165;-55
2022/07/05 11:40:40;;;;;;;2.47;0.70;;;;;;;31.70;100.00;99470.19;1640524;84;22191;-54
2022/07/05 11:43:08;;;;;;;1.35;0.65;;;;;;;31.74;100.00;99468.66;1667693;84;21084;-54